createdAt,value
2023-02-18T00:02:56.858Z,13.60
2023-02-18T00:08:00.528Z,14.63
2023-02-18T00:13:04.201Z,14.50
2023-02-18T00:18:09.461Z,13.30
2023-02-18T00:23:13.162Z,14.57
2023-02-18T00:28:16.905Z,13.70
2023-02-18T00:33:22.348Z,15.32
2023-02-18T00:38:26.292Z,16.23
2023-02-18T00:43:32.210Z,17.00
2023-02-18T00:48:37.505Z,16.70
2023-02-18T00:53:42.004Z,17.38
2023-02-18T00:58:45.838Z,16.65
2023-02-18T01:03:50.977Z,16.50
2023-02-18T01:08:54.704Z,16.40
2023-02-18T01:13:59.016Z,17.88
2023-02-18T01:19:04.177Z,17.75
2023-02-18T01:24:08.335Z,17.70
2023-02-18T01:29:12.442Z,18.98
2023-02-18T01:34:18.807Z,19.38
2023-02-18T01:39:22.556Z,20.88
2023-02-18T01:44:27.856Z,21.40
2023-02-18T01:49:37.102Z,21.50
2023-02-18T01:54:43.885Z,22.55
2023-02-18T01:59:53.075Z,24.85
2023-02-18T02:04:59.051Z,22.23
2023-02-18T02:10:03.808Z,23.20
2023-02-18T02:15:25.296Z,21.15
2023-02-18T02:20:52.433Z,20.38
2023-02-18T02:26:33.024Z,20.63
2023-02-18T02:32:15.123Z,21.63
2023-02-18T02:37:28.629Z,19.98
2023-02-18T02:42:46.302Z,19.02
2023-02-18T02:47:57.840Z,17.38
2023-02-18T02:53:08.366Z,14.85
2023-02-18T02:58:16.957Z,15.93
2023-02-18T03:03:52.242Z,13.70
2023-02-18T03:09:07.538Z,11.82
2023-02-18T03:14:17.206Z,10.80
2023-02-18T03:19:26.494Z,10.02
2023-02-18T03:24:39.755Z,8.95
2023-02-18T03:29:46.059Z,8.13
2023-02-18T03:34:57.045Z,6.50
2023-02-18T03:40:03.327Z,5.45
2023-02-18T03:45:07.563Z,4.77
2023-02-18T03:50:11.682Z,4.78
2023-02-18T03:55:16.892Z,5.00
2023-02-18T04:00:21.481Z,5.25
2023-02-18T04:05:25.204Z,4.78
2023-02-18T04:10:30.236Z,5.22
2023-02-18T04:15:34.669Z,6.25
2023-02-18T04:20:38.626Z,6.05
2023-02-18T04:25:43.708Z,6.18
2023-02-18T04:30:49.272Z,7.93
2023-02-18T04:35:53.001Z,8.77
2023-02-18T04:40:58.191Z,7.15
2023-02-18T04:46:01.992Z,7.70
2023-02-18T04:51:06.369Z,9.23
2023-02-18T04:56:11.454Z,8.40
2023-02-18T05:01:15.138Z,5.50
2023-02-18T05:06:18.938Z,6.70
2023-02-18T05:11:24.062Z,6.43
2023-02-18T05:16:27.808Z,6.50
2023-02-18T05:21:31.545Z,7.25
2023-02-18T05:26:36.669Z,6.18
2023-02-18T05:31:40.539Z,6.82
2023-02-18T05:36:44.341Z,7.20
2023-02-18T05:41:49.548Z,6.82
2023-02-18T05:46:53.264Z,5.70
2023-02-18T05:51:57.308Z,5.43
2023-02-18T05:57:02.668Z,5.20
2023-02-18T06:02:06.366Z,4.90
2023-02-18T06:07:10.192Z,5.03
2023-02-18T06:12:15.237Z,4.85
2023-02-18T06:17:19.917Z,5.30
2023-02-18T06:22:23.647Z,4.38
2023-02-18T06:27:28.714Z,4.85
2023-02-18T06:32:32.397Z,4.75
2023-02-18T06:37:36.160Z,4.75
2023-02-18T06:42:41.361Z,4.60
2023-02-18T06:47:45.169Z,4.38
2023-02-18T06:52:48.897Z,3.88
2023-02-18T06:57:53.995Z,3.25
2023-02-18T07:02:57.796Z,2.75
2023-02-18T07:08:01.911Z,2.80
2023-02-18T07:13:07.378Z,2.60
2023-02-18T07:18:11.120Z,3.10
2023-02-18T07:23:14.754Z,3.10
2023-02-18T07:28:19.807Z,3.53
2023-02-18T07:33:23.506Z,4.00
2023-02-18T07:38:28.510Z,3.55
2023-02-18T07:43:33.634Z,3.92
2023-02-18T07:48:37.433Z,4.00
2023-02-18T07:53:41.811Z,3.90
2023-02-18T07:58:47.176Z,3.38
2023-02-18T08:03:51.077Z,4.57
2023-02-18T08:08:55.110Z,3.13
2023-02-18T08:14:00.258Z,3.90
2023-02-18T08:19:04.801Z,3.40
2023-02-18T08:24:09.135Z,2.78
2023-02-18T08:29:14.467Z,3.08
2023-02-18T08:34:19.152Z,3.10
2023-02-18T08:39:23.272Z,4.38
2023-02-18T08:44:28.556Z,2.83
2023-02-18T08:49:32.258Z,2.75
2023-02-18T08:54:35.951Z,2.28
2023-02-18T08:59:41.141Z,2.08
2023-02-18T09:04:45.170Z,2.03
2023-02-18T09:09:48.838Z,1.83
2023-02-18T09:14:53.921Z,1.40
2023-02-18T09:19:57.635Z,1.23
2023-02-18T09:25:01.698Z,1.17
2023-02-18T09:30:08.334Z,1.73
2023-02-18T09:35:12.219Z,1.10
2023-02-18T09:40:26.972Z,1.20
2023-02-18T09:45:32.096Z,0.75
2023-02-18T09:50:35.934Z,1.83
2023-02-18T09:55:41.434Z,1.52
2023-02-18T10:00:50.912Z,1.50
2023-02-18T10:06:00.381Z,0.98
2023-02-18T10:11:05.011Z,1.63
2023-02-18T10:16:14.854Z,1.25
2023-02-18T10:21:22.982Z,1.20
2023-02-18T10:26:26.724Z,1.50
2023-02-18T10:31:35.521Z,1.50
2023-02-18T10:36:45.923Z,1.92
2023-02-18T10:41:59.723Z,1.48
2023-02-18T10:47:17.630Z,2.28
2023-02-18T10:52:22.105Z,1.80
2023-02-18T10:57:26.580Z,1.90
2023-02-18T11:02:33.873Z,2.55
2023-02-18T11:12:47.573Z,2.30
2023-02-18T11:17:55.520Z,3.08
2023-02-18T11:23:01.334Z,2.53
2023-02-18T11:28:08.784Z,2.30
2023-02-18T11:33:19.956Z,1.67
2023-02-18T11:38:26.950Z,2.08
2023-02-18T11:43:35.384Z,1.83
2023-02-18T11:48:41.527Z,1.98
2023-02-18T11:53:59.651Z,1.60
2023-02-18T11:59:05.158Z,3.95
2023-02-18T12:04:14.470Z,1.50
2023-02-18T12:09:28.095Z,1.77
2023-02-18T12:14:33.435Z,1.75
2023-02-18T12:19:55.252Z,1.90
2023-02-18T12:25:12.463Z,1.30
2023-02-18T12:30:37.313Z,1.35
2023-02-18T12:35:56.953Z,1.40
2023-02-18T12:41:15.625Z,1.20
2023-02-18T12:46:37.974Z,1.00
2023-02-18T12:51:57.298Z,0.90
2023-02-18T12:57:11.468Z,1.00
2023-02-18T13:02:36.529Z,1.20
2023-02-18T13:08:01.210Z,1.02
2023-02-18T13:13:11.933Z,0.95
2023-02-18T13:18:21.536Z,1.17
2023-02-18T13:23:34.554Z,1.15
2023-02-18T13:28:45.015Z,0.90
2023-02-18T13:33:53.993Z,0.70
2023-02-18T13:39:08.111Z,0.70
2023-02-18T13:44:41.932Z,1.10
2023-02-18T13:49:45.658Z,1.10
2023-02-18T13:54:52.047Z,1.00
2023-02-18T13:59:59.600Z,1.02
2023-02-18T14:05:24.432Z,1.13
2023-02-18T14:10:33.734Z,0.95
2023-02-18T14:15:56.924Z,1.05
2023-02-18T14:21:20.620Z,0.88
2023-02-18T14:26:31.538Z,0.90
2023-02-18T14:31:42.592Z,0.95
2023-02-18T14:36:55.437Z,1.25
2023-02-18T14:42:09.660Z,1.23
2023-02-18T14:47:26.414Z,0.85
2023-02-18T14:52:33.741Z,0.80
2023-02-18T14:57:45.976Z,1.15
2023-02-18T15:02:51.539Z,0.73
2023-02-18T15:08:04.018Z,0.98
2023-02-18T15:13:15.810Z,1.23
2023-02-18T15:18:30.743Z,0.80
2023-02-18T15:23:37.568Z,0.80
2023-02-18T15:28:52.801Z,0.55
2023-02-18T15:33:57.048Z,1.10
2023-02-18T15:39:01.019Z,0.77
2023-02-18T15:44:08.339Z,0.88
2023-02-18T15:49:15.981Z,1.17
2023-02-18T15:54:23.276Z,1.67
2023-02-18T15:59:30.473Z,0.95
2023-02-18T16:04:36.121Z,1.35
2023-02-18T16:09:41.408Z,2.28
2023-02-18T16:14:49.053Z,2.95
2023-02-18T16:20:04.345Z,3.85
2023-02-18T16:25:16.472Z,4.70
2023-02-18T16:30:24.029Z,4.78
2023-02-18T16:35:40.468Z,5.00
2023-02-18T16:40:54.775Z,5.05
2023-02-18T16:46:06.728Z,5.00
2023-02-18T16:51:15.069Z,5.30
2023-02-18T16:56:25.693Z,6.03
2023-02-18T17:01:32.731Z,7.30
2023-02-18T17:11:39.912Z,7.22
2023-02-18T17:16:45.163Z,6.80
2023-02-18T17:21:58.443Z,6.78
2023-02-18T17:27:02.862Z,7.35
2023-02-18T17:32:09.847Z,6.93
2023-02-18T17:37:14.401Z,7.22
2023-02-18T17:42:18.124Z,7.63
2023-02-18T17:47:23.212Z,7.22
2023-02-18T17:52:31.739Z,7.15
2023-02-18T17:57:35.459Z,6.65
2023-02-18T18:02:40.631Z,8.20
2023-02-18T18:07:44.476Z,6.88
2023-02-18T18:12:48.266Z,6.65
2023-02-18T18:17:53.565Z,6.30
2023-02-18T18:22:59.662Z,7.38
2023-02-18T18:28:03.406Z,6.97
2023-02-18T18:33:15.673Z,7.38
2023-02-18T18:38:20.753Z,8.25
2023-02-18T18:43:26.387Z,9.70
2023-02-18T18:48:31.440Z,10.50
2023-02-18T18:53:37.839Z,10.85
2023-02-18T18:58:41.795Z,10.88
2023-02-18T19:03:47.417Z,11.82
2023-02-18T19:08:51.240Z,11.27
2023-02-18T19:13:54.968Z,11.63
2023-02-18T19:19:00.050Z,11.48
2023-02-18T19:24:04.148Z,11.50
2023-02-18T19:29:07.860Z,11.57
2023-02-18T19:34:13.014Z,12.02
2023-02-18T19:39:16.827Z,13.35
2023-02-18T19:44:20.486Z,13.65
2023-02-18T19:49:28.928Z,14.63
2023-02-18T19:54:32.910Z,14.85
2023-02-18T19:59:36.845Z,15.85
2023-02-18T20:04:41.907Z,14.98
2023-02-18T20:09:45.775Z,14.48
2023-02-18T20:14:51.804Z,13.25
2023-02-18T20:19:56.868Z,14.40
2023-02-18T20:25:01.177Z,12.88
2023-02-18T20:30:05.583Z,13.40
2023-02-18T20:35:11.105Z,13.48
2023-02-18T20:40:14.881Z,10.52
2023-02-18T20:45:18.893Z,11.18
2023-02-18T20:50:24.205Z,10.98
2023-02-18T20:55:27.889Z,10.65
2023-02-18T21:00:31.636Z,11.88
2023-02-18T21:05:36.771Z,10.88
2023-02-18T21:10:41.894Z,10.57
2023-02-18T21:15:46.017Z,11.38
2023-02-18T21:20:51.162Z,11.60
2023-02-18T21:26:02.424Z,11.10
2023-02-18T21:31:06.626Z,10.45
2023-02-18T21:36:14.215Z,10.55
2023-02-18T21:41:18.162Z,9.98
2023-02-18T21:46:23.745Z,9.90
2023-02-18T21:51:46.336Z,9.45
2023-02-18T21:56:50.430Z,9.98
2023-02-18T22:01:54.224Z,9.95
2023-02-18T22:06:59.477Z,10.35
2023-02-18T22:12:03.403Z,9.88
2023-02-18T22:17:07.601Z,10.20
2023-02-18T22:22:12.744Z,10.40
2023-02-18T22:27:16.408Z,10.32
2023-02-18T22:32:20.307Z,10.23
2023-02-18T22:37:25.449Z,9.50
2023-02-18T22:42:29.150Z,9.68
2023-02-18T22:47:32.776Z,10.48
2023-02-18T22:52:38.290Z,9.65
2023-02-18T22:57:41.985Z,10.65
2023-02-18T23:02:51.633Z,10.55
2023-02-18T23:07:56.684Z,9.20
2023-02-18T23:13:00.318Z,9.35
2023-02-18T23:18:04.057Z,8.73
2023-02-18T23:23:09.118Z,9.40
2023-02-18T23:28:12.847Z,8.20
2023-02-18T23:33:16.673Z,9.00
2023-02-18T23:38:21.712Z,9.30
2023-02-18T23:43:25.347Z,8.88
2023-02-18T23:48:29.013Z,8.30
2023-02-18T23:53:35.931Z,7.47
2023-02-18T23:58:40.395Z,7.88
